createdAt,value
2023-04-10T00:02:12.344Z,4.34
2023-04-10T00:05:17.249Z,4.30
2023-04-10T00:08:19.949Z,4.28
2023-04-10T00:11:22.806Z,4.27
2023-04-10T00:14:25.699Z,4.23
2023-04-10T00:17:28.635Z,4.29
2023-04-10T00:20:31.464Z,4.26
2023-04-10T00:23:35.061Z,4.16
2023-04-10T00:26:37.729Z,4.04
2023-04-10T00:29:40.663Z,3.89
2023-04-10T00:32:44.155Z,3.85
2023-04-10T00:35:47.267Z,3.79
2023-04-10T00:38:52.729Z,3.68
2023-04-10T00:41:55.619Z,3.45
2023-04-10T00:44:58.998Z,3.51
2023-04-10T00:48:01.798Z,3.52
2023-04-10T00:51:06.807Z,3.33
2023-04-10T00:54:10.814Z,3.30
2023-04-10T00:57:13.517Z,3.22
2023-04-10T01:00:17.070Z,3.26
2023-04-10T01:03:21.746Z,3.29
2023-04-10T01:06:27.845Z,3.29
2023-04-10T01:09:50.659Z,3.22
2023-04-10T01:12:57.042Z,3.34
2023-04-10T01:16:11.114Z,3.18
2023-04-10T01:19:21.644Z,3.22
2023-04-10T01:22:28.917Z,3.20
2023-04-10T01:25:47.492Z,3.23
2023-04-10T01:29:02.229Z,3.26
2023-04-10T01:32:12.263Z,3.32
2023-04-10T01:35:16.138Z,3.23
2023-04-10T01:38:21.243Z,3.30
2023-04-10T01:41:24.387Z,3.50
2023-04-10T01:44:30.351Z,3.47
2023-04-10T01:47:33.252Z,3.34
2023-04-10T01:50:36.467Z,3.32
2023-04-10T01:53:39.786Z,3.28
2023-04-10T01:56:43.486Z,3.18
2023-04-10T01:59:51.512Z,3.20
2023-04-10T02:02:54.519Z,3.19
2023-04-10T02:06:18.176Z,3.24
2023-04-10T02:09:28.309Z,3.21
2023-04-10T02:12:41.875Z,3.16
2023-04-10T02:15:47.076Z,3.27
2023-04-10T02:18:51.231Z,3.25
2023-04-10T02:21:54.646Z,3.24
2023-04-10T02:24:57.579Z,3.18
2023-04-10T02:28:07.508Z,3.16
2023-04-10T02:31:10.405Z,3.15
2023-04-10T02:34:13.177Z,3.15
2023-04-10T02:37:16.003Z,3.18
2023-04-10T02:40:18.696Z,3.13
2023-04-10T02:43:29.972Z,3.10
2023-04-10T02:46:32.974Z,3.08
2023-04-10T02:49:35.806Z,3.02
2023-04-10T02:52:46.409Z,2.93
2023-04-10T02:55:49.427Z,2.87
2023-04-10T02:58:52.191Z,2.87
2023-04-10T03:01:55.668Z,2.85
2023-04-10T03:04:58.510Z,2.77
2023-04-10T03:08:04.210Z,2.70
2023-04-10T03:11:08.399Z,2.64
2023-04-10T03:14:11.318Z,2.63
2023-04-10T03:17:14.091Z,2.62
2023-04-10T03:20:16.848Z,2.57
2023-04-10T03:23:19.618Z,2.54
2023-04-10T03:26:24.370Z,2.50
2023-04-10T03:29:27.612Z,2.51
2023-04-10T03:32:31.854Z,2.46
2023-04-10T03:35:35.359Z,2.40
2023-04-10T03:38:38.279Z,2.28
2023-04-10T03:41:43.867Z,2.29
2023-04-10T03:44:46.512Z,2.22
2023-04-10T03:47:52.498Z,2.16
2023-04-10T03:50:56.050Z,2.09
2023-04-10T03:53:58.742Z,2.11
2023-04-10T03:57:01.922Z,2.13
2023-04-10T04:00:06.196Z,2.09
2023-04-10T04:03:22.693Z,2.03
2023-04-10T04:06:34.619Z,2.07
2023-04-10T04:09:58.668Z,1.96
2023-04-10T04:13:17.485Z,1.92
2023-04-10T04:16:28.987Z,2.05
2023-04-10T04:19:54.359Z,1.97
2023-04-10T04:23:00.859Z,1.98
2023-04-10T04:26:22.741Z,2.01
2023-04-10T04:29:51.601Z,2.07
2023-04-10T04:33:22.001Z,2.08
2023-04-10T04:36:54.402Z,2.16
2023-04-10T04:40:12.935Z,2.31
2023-04-10T04:43:34.562Z,2.38
2023-04-10T04:46:44.723Z,2.75
2023-04-10T04:50:06.815Z,3.07
2023-04-10T04:53:28.108Z,3.22
2023-04-10T04:56:49.802Z,3.20
2023-04-10T05:00:18.684Z,3.22
2023-04-10T05:03:33.252Z,3.34
2023-04-10T05:07:05.377Z,3.48
2023-04-10T05:10:15.724Z,3.66
2023-04-10T05:13:36.955Z,3.64
2023-04-10T05:17:01.049Z,3.61
2023-04-10T05:20:19.697Z,3.78
2023-04-10T05:23:57.966Z,3.88
2023-04-10T05:27:18.094Z,3.99
2023-04-10T05:30:29.943Z,4.15
2023-04-10T05:34:01.380Z,4.35
2023-04-10T05:37:24.349Z,4.61
2023-04-10T05:40:34.178Z,4.68
2023-04-10T05:43:57.112Z,4.86
2023-04-10T05:47:19.939Z,5.13
2023-04-10T05:50:40.969Z,5.14
2023-04-10T05:54:06.823Z,5.34
2023-04-10T05:57:45.108Z,5.63
2023-04-10T06:01:16.682Z,6.01
2023-04-10T06:04:28.134Z,6.17
2023-04-10T06:07:33.534Z,6.45
2023-04-10T06:10:36.782Z,6.53
2023-04-10T06:13:39.769Z,7.02
2023-04-10T06:16:43.538Z,7.00
2023-04-10T06:19:46.760Z,6.93
2023-04-10T06:22:52.173Z,6.97
2023-04-10T06:25:57.188Z,7.18
2023-04-10T06:29:00.502Z,7.12
2023-04-10T06:32:03.758Z,7.39
2023-04-10T06:35:11.693Z,7.36
2023-04-10T06:38:14.669Z,7.58
2023-04-10T06:41:18.780Z,7.66
2023-04-10T06:44:21.540Z,8.05
2023-04-10T06:47:24.408Z,8.34
2023-04-10T06:50:27.311Z,8.35
2023-04-10T06:53:30.660Z,8.08
2023-04-10T06:56:33.412Z,8.34
2023-04-10T06:59:36.419Z,8.18
2023-04-10T07:02:39.518Z,8.35
2023-04-10T07:05:42.496Z,8.27
2023-04-10T07:08:45.363Z,8.49
2023-04-10T07:11:48.712Z,8.60
2023-04-10T07:14:51.531Z,8.87
2023-04-10T07:17:54.392Z,8.59
2023-04-10T07:20:57.397Z,8.41
2023-04-10T07:24:00.222Z,8.60
2023-04-10T07:27:04.011Z,8.68
2023-04-10T07:30:07.586Z,8.78
2023-04-10T07:33:10.677Z,9.10
2023-04-10T07:36:13.899Z,9.12
2023-04-10T07:39:16.584Z,9.09
2023-04-10T07:42:19.537Z,9.11
2023-04-10T07:45:22.441Z,9.29
2023-04-10T07:48:25.158Z,9.43
2023-04-10T07:51:29.292Z,9.44
2023-04-10T07:54:34.317Z,9.65
2023-04-10T07:57:37.168Z,9.88
2023-04-10T08:00:39.953Z,10.20
2023-04-10T08:03:44.402Z,10.22
2023-04-10T08:06:47.600Z,10.47
2023-04-10T08:09:50.260Z,10.70
2023-04-10T08:12:53.146Z,10.41
2023-04-10T08:15:58.433Z,10.40
2023-04-10T08:19:02.499Z,10.50
2023-04-10T08:22:07.586Z,10.72
2023-04-10T08:25:10.699Z,10.62
2023-04-10T08:28:13.544Z,10.83
2023-04-10T08:31:16.588Z,11.31
2023-04-10T08:34:19.558Z,11.24
2023-04-10T08:37:22.442Z,11.32
2023-04-10T08:40:25.172Z,11.49
2023-04-10T08:43:28.104Z,11.68
2023-04-10T08:46:32.027Z,11.85
2023-04-10T08:49:57.453Z,12.06
2023-04-10T08:53:11.460Z,11.79
2023-04-10T08:56:16.990Z,11.84
2023-04-10T08:59:19.962Z,12.13
2023-04-10T09:02:22.865Z,12.00
2023-04-10T09:05:27.753Z,12.02
2023-04-10T09:08:30.945Z,12.15
2023-04-10T09:11:52.203Z,12.60
2023-04-10T09:14:57.593Z,12.87
2023-04-10T09:18:01.223Z,13.49
2023-04-10T09:21:08.401Z,13.61
2023-04-10T09:24:10.959Z,13.40
2023-04-10T09:27:40.655Z,13.23
2023-04-10T09:30:43.834Z,12.45
2023-04-10T09:33:46.817Z,12.60
2023-04-10T09:36:57.416Z,12.88
2023-04-10T09:40:00.258Z,12.82
2023-04-10T09:43:26.685Z,13.46
2023-04-10T09:46:29.528Z,13.70
2023-04-10T09:49:45.939Z,13.68
2023-04-10T09:52:58.014Z,14.01
2023-04-10T09:56:02.483Z,14.25
2023-04-10T09:59:14.581Z,14.01
2023-04-10T10:02:22.151Z,14.79
2023-04-10T10:05:28.526Z,14.40
2023-04-10T10:08:32.125Z,14.37
2023-04-10T10:11:36.005Z,15.35
2023-04-10T10:14:56.996Z,15.06
2023-04-10T10:18:30.239Z,14.37
2023-04-10T10:21:34.632Z,14.38
2023-04-10T10:24:38.648Z,14.13
2023-04-10T10:27:42.262Z,14.01
2023-04-10T10:30:45.613Z,13.96
2023-04-10T10:33:48.563Z,13.68
2023-04-10T10:36:51.600Z,13.45
2023-04-10T10:40:13.066Z,13.31
2023-04-10T10:43:21.390Z,13.61
2023-04-10T10:46:49.737Z,13.54
2023-04-10T10:49:56.884Z,14.13
2023-04-10T10:53:01.614Z,13.93
2023-04-10T10:56:27.270Z,13.48
2023-04-10T10:59:48.558Z,13.78
2023-04-10T11:03:09.431Z,13.91
2023-04-10T11:06:17.238Z,14.06
2023-04-10T11:09:52.169Z,14.12
2023-04-10T11:13:18.252Z,14.69
2023-04-10T11:16:21.744Z,13.98
2023-04-10T11:19:26.806Z,14.10
2023-04-10T11:22:29.890Z,13.80
2023-04-10T11:25:49.632Z,13.70
2023-04-10T11:28:52.496Z,13.18
2023-04-10T11:32:03.931Z,13.32
2023-04-10T11:35:07.097Z,13.32
2023-04-10T11:38:14.780Z,13.40
2023-04-10T11:41:17.435Z,13.63
2023-04-10T11:44:26.748Z,13.73
2023-04-10T11:47:29.861Z,13.75
2023-04-10T11:50:36.340Z,14.27
2023-04-10T11:53:39.848Z,14.64
2023-04-10T11:57:09.628Z,15.00
2023-04-10T12:00:12.945Z,15.53
2023-04-10T12:03:16.487Z,15.35
2023-04-10T12:06:20.067Z,15.37
2023-04-10T12:09:23.173Z,15.65
2023-04-10T12:12:39.467Z,16.19
2023-04-10T12:15:42.502Z,15.92
2023-04-10T12:18:45.737Z,15.90
2023-04-10T12:21:49.082Z,14.83
2023-04-10T12:24:53.857Z,14.21
2023-04-10T12:27:56.796Z,13.70
2023-04-10T12:30:59.757Z,15.06
2023-04-10T12:34:05.796Z,15.59
2023-04-10T12:37:10.220Z,15.40
2023-04-10T12:40:13.767Z,15.33
2023-04-10T12:43:32.266Z,14.94
2023-04-10T12:46:36.865Z,15.09
2023-04-10T12:49:39.981Z,15.50
2023-04-10T12:53:01.914Z,15.72
2023-04-10T12:56:06.977Z,15.31
2023-04-10T12:59:09.953Z,14.56
2023-04-10T13:02:12.799Z,14.42
2023-04-10T13:05:16.081Z,14.71
2023-04-10T13:08:19.043Z,14.35
2023-04-10T13:11:23.416Z,14.70
2023-04-10T13:14:26.676Z,14.52
2023-04-10T13:17:29.507Z,14.24
2023-04-10T13:20:32.471Z,14.46
2023-04-10T13:23:35.213Z,14.28
2023-04-10T13:26:38.191Z,15.18
2023-04-10T13:29:42.552Z,15.02
2023-04-10T13:32:45.233Z,15.55
2023-04-10T13:35:48.119Z,15.81
2023-04-10T13:38:51.260Z,16.15
2023-04-10T13:41:54.069Z,15.86
2023-04-10T13:44:57.217Z,15.29
2023-04-10T13:48:00.022Z,14.77
2023-04-10T13:51:02.970Z,15.34
2023-04-10T13:54:05.707Z,15.63
2023-04-10T13:57:08.622Z,15.80
2023-04-10T14:00:12.179Z,15.87
2023-04-10T14:03:18.102Z,15.78
2023-04-10T14:06:21.069Z,15.85
2023-04-10T14:09:24.235Z,15.43
2023-04-10T14:12:27.754Z,14.95
2023-04-10T14:15:30.861Z,14.99
2023-04-10T14:18:33.765Z,14.82
2023-04-10T14:21:37.892Z,14.93
2023-04-10T14:24:40.686Z,14.87
2023-04-10T14:27:43.957Z,15.11
2023-04-10T14:30:51.130Z,14.75
2023-04-10T14:33:54.237Z,14.72
2023-04-10T14:36:57.536Z,14.90
2023-04-10T14:40:00.512Z,14.41
2023-04-10T14:43:03.356Z,14.36
2023-04-10T14:46:06.540Z,14.46
2023-04-10T14:49:11.585Z,14.58
2023-04-10T14:52:17.272Z,14.67
2023-04-10T14:55:20.308Z,14.66
2023-04-10T14:58:23.301Z,14.49
2023-04-10T15:01:26.101Z,14.58
2023-04-10T15:04:29.467Z,14.70
2023-04-10T15:07:32.526Z,14.94
2023-04-10T15:10:35.356Z,14.71
2023-04-10T15:13:39.131Z,14.83
2023-04-10T15:16:42.631Z,14.87
2023-04-10T15:19:46.122Z,14.63
2023-04-10T15:22:48.981Z,14.84
2023-04-10T15:25:52.008Z,14.90
2023-04-10T15:28:55.094Z,14.73
2023-04-10T15:32:00.195Z,14.69
2023-04-10T15:35:03.077Z,14.75
2023-04-10T15:38:07.054Z,14.59
2023-04-10T15:41:13.758Z,14.58
2023-04-10T15:44:19.918Z,14.42
2023-04-10T15:47:22.888Z,14.31
2023-04-10T15:50:26.011Z,14.03
2023-04-10T15:53:28.960Z,14.34
2023-04-10T15:56:33.568Z,14.16
2023-04-10T15:59:37.229Z,13.94
2023-04-10T16:02:40.393Z,13.92
2023-04-10T16:05:43.496Z,13.90
2023-04-10T16:08:46.182Z,13.82
2023-04-10T16:11:50.474Z,13.78
2023-04-10T16:14:53.279Z,13.56
2023-04-10T16:17:56.076Z,13.56
2023-04-10T16:20:59.007Z,13.59
2023-04-10T16:24:02.043Z,13.46
2023-04-10T16:27:08.609Z,13.48
2023-04-10T16:30:12.308Z,13.31
2023-04-10T16:33:14.976Z,13.11
2023-04-10T16:36:17.953Z,13.16
2023-04-10T16:39:20.918Z,13.05
2023-04-10T16:42:23.994Z,12.85
2023-04-10T16:45:26.976Z,12.93
2023-04-10T16:48:30.075Z,12.80
2023-04-10T16:51:33.036Z,12.76
2023-04-10T16:54:35.998Z,12.65
2023-04-10T16:57:38.763Z,12.62
2023-04-10T17:00:41.981Z,12.64
2023-04-10T17:03:49.142Z,12.54
2023-04-10T17:06:52.346Z,12.37
2023-04-10T17:09:55.019Z,12.32
2023-04-10T17:12:57.838Z,12.41
2023-04-10T17:16:00.846Z,12.25
2023-04-10T17:19:03.850Z,12.24
2023-04-10T17:22:15.838Z,12.17
2023-04-10T17:25:18.898Z,12.21
2023-04-10T17:28:22.072Z,12.06
2023-04-10T17:31:24.967Z,12.06
2023-04-10T17:34:27.866Z,11.92
2023-04-10T17:37:30.862Z,11.93
2023-04-10T17:40:33.906Z,11.81
2023-04-10T17:43:37.195Z,11.70
2023-04-10T17:46:40.078Z,11.55
2023-04-10T17:49:43.206Z,11.51
2023-04-10T17:52:46.397Z,11.52
2023-04-10T17:55:49.405Z,11.50
2023-04-10T17:58:54.580Z,11.43
2023-04-10T18:01:57.715Z,11.43
2023-04-10T18:05:02.348Z,11.38
2023-04-10T18:08:05.553Z,11.30
2023-04-10T18:11:08.618Z,11.24
2023-04-10T18:14:11.681Z,11.09
2023-04-10T18:17:15.380Z,10.96
2023-04-10T18:20:19.437Z,11.05
2023-04-10T18:23:24.884Z,10.95
2023-04-10T18:26:33.915Z,10.75
2023-04-10T18:29:37.086Z,10.68
2023-04-10T18:32:40.126Z,10.61
2023-04-10T18:35:43.307Z,10.41
2023-04-10T18:38:47.856Z,10.28
2023-04-10T18:41:51.044Z,10.20
2023-04-10T18:44:54.121Z,10.11
2023-04-10T18:47:56.813Z,9.99
2023-04-10T18:50:59.668Z,9.75
2023-04-10T18:54:04.083Z,9.79
2023-04-10T18:57:08.252Z,9.75
2023-04-10T19:00:12.144Z,9.56
2023-04-10T19:03:15.294Z,9.39
2023-04-10T19:06:18.490Z,9.19
2023-04-10T19:09:21.373Z,9.17
2023-04-10T19:12:24.387Z,9.19
2023-04-10T19:15:27.690Z,9.23
2023-04-10T19:18:31.129Z,9.17
2023-04-10T19:21:34.924Z,9.03
2023-04-10T19:24:37.671Z,9.14
2023-04-10T19:27:40.569Z,9.23
2023-04-10T19:30:43.501Z,9.30
2023-04-10T19:33:46.300Z,9.31
2023-04-10T19:36:49.007Z,9.24
2023-04-10T19:39:51.980Z,9.21
2023-04-10T19:42:55.318Z,9.06
2023-04-10T19:46:00.212Z,8.64
2023-04-10T19:49:03.315Z,8.54
2023-04-10T19:52:06.140Z,8.49
2023-04-10T19:55:09.563Z,8.57
2023-04-10T19:58:30.073Z,8.61
2023-04-10T20:01:35.490Z,8.65
2023-04-10T20:04:38.560Z,8.63
2023-04-10T20:07:45.228Z,8.43
2023-04-10T20:10:48.221Z,8.41
2023-04-10T20:13:51.165Z,8.43
2023-04-10T20:16:54.668Z,8.25
2023-04-10T20:19:58.233Z,8.13
2023-04-10T20:23:01.509Z,8.17
2023-04-10T20:26:04.489Z,8.21
2023-04-10T20:29:07.204Z,8.18
2023-04-10T20:32:09.980Z,8.05
2023-04-10T20:35:14.402Z,8.05
2023-04-10T20:38:18.477Z,8.05
2023-04-10T20:41:21.495Z,8.03
2023-04-10T20:44:27.255Z,7.98
2023-04-10T20:47:30.622Z,7.90
2023-04-10T20:50:33.608Z,7.93
2023-04-10T20:53:36.363Z,7.93
2023-04-10T20:56:43.450Z,7.70
2023-04-10T20:59:46.812Z,7.58
2023-04-10T21:02:50.055Z,7.54
2023-04-10T21:05:53.889Z,7.41
2023-04-10T21:08:57.006Z,7.41
2023-04-10T21:12:02.278Z,7.39
2023-04-10T21:15:05.285Z,7.18
2023-04-10T21:18:08.312Z,7.20
2023-04-10T21:21:11.567Z,7.26
2023-04-10T21:24:14.244Z,7.30
2023-04-10T21:27:17.149Z,7.27
2023-04-10T21:30:20.124Z,7.25
2023-04-10T21:33:23.044Z,7.25
2023-04-10T21:36:26.756Z,7.19
2023-04-10T21:39:30.172Z,7.04
2023-04-10T21:42:33.729Z,6.84
2023-04-10T21:45:38.820Z,6.75
2023-04-10T21:48:42.066Z,6.76
2023-04-10T21:51:44.890Z,6.83
2023-04-10T21:54:47.728Z,6.91
2023-04-10T21:57:50.540Z,6.95
2023-04-10T22:00:54.971Z,6.72
2023-04-10T22:03:57.997Z,6.59
2023-04-10T22:07:00.969Z,6.64
2023-04-10T22:10:04.211Z,6.66
2023-04-10T22:13:08.842Z,6.69
2023-04-10T22:16:13.082Z,6.75
2023-04-10T22:19:15.880Z,6.80
2023-04-10T22:22:20.478Z,6.90
2023-04-10T22:25:23.924Z,6.91
2023-04-10T22:28:26.741Z,7.01
2023-04-10T22:31:29.398Z,7.03
2023-04-10T22:34:32.411Z,7.03
2023-04-10T22:37:35.068Z,7.00
2023-04-10T22:40:39.009Z,7.01
2023-04-10T22:43:41.686Z,6.99
2023-04-10T22:46:44.711Z,7.10
2023-04-10T22:49:47.710Z,6.88
2023-04-10T22:52:50.632Z,6.76
2023-04-10T22:55:53.301Z,6.80
2023-04-10T22:58:56.497Z,6.83
2023-04-10T23:01:59.634Z,6.87
2023-04-10T23:05:03.146Z,6.87
2023-04-10T23:08:05.962Z,6.76
2023-04-10T23:11:08.621Z,6.71
2023-04-10T23:14:11.387Z,6.71
2023-04-10T23:17:14.165Z,6.71
2023-04-10T23:20:17.084Z,6.70
2023-04-10T23:23:20.291Z,6.77
2023-04-10T23:26:23.220Z,6.79
2023-04-10T23:29:26.050Z,6.65
2023-04-10T23:32:28.719Z,6.56
2023-04-10T23:35:31.441Z,6.50
2023-04-10T23:38:34.113Z,6.45
2023-04-10T23:41:36.940Z,6.51
2023-04-10T23:44:40.734Z,6.51
2023-04-10T23:47:44.269Z,6.55
2023-04-10T23:50:46.940Z,6.37
2023-04-10T23:53:49.705Z,6.39
2023-04-10T23:56:52.786Z,6.40
2023-04-10T23:59:55.578Z,6.34
